sensor_id;sensor_type;location;lat;lon;timestamp;P1;durP1;ratioP1;P2;durP2;ratioP2
23317;SDS011;11831;55.918;37.746;2023-02-18T00:01:27;35.05;;;20.83;;
23317;SDS011;11831;55.918;37.746;2023-02-18T00:04:13;37.58;;;21.15;;
23317;SDS011;11831;55.918;37.746;2023-02-18T00:06:39;37.05;;;19.95;;
23317;SDS011;11831;55.918;37.746;2023-02-18T00:09:06;37.78;;;20.48;;
23317;SDS011;11831;55.918;37.746;2023-02-18T00:11:34;35.40;;;20.77;;
23317;SDS011;11831;55.918;37.746;2023-02-18T00:14:02;40.00;;;20.85;;
23317;SDS011;11831;55.918;37.746;2023-02-18T00:16:31;34.67;;;19.02;;
23317;SDS011;11831;55.918;37.746;2023-02-18T00:18:59;34.78;;;18.62;;
23317;SDS011;11831;55.918;37.746;2023-02-18T00:21:27;38.10;;;18.92;;
23317;SDS011;11831;55.918;37.746;2023-02-18T00:23:54;33.67;;;17.67;;
23317;SDS011;11831;55.918;37.746;2023-02-18T00:26:21;32.88;;;17.33;;
23317;SDS011;11831;55.918;37.746;2023-02-18T00:31:33;35.70;;;18.33;;
23317;SDS011;11831;55.918;37.746;2023-02-18T00:34:02;30.17;;;16.80;;
23317;SDS011;11831;55.918;37.746;2023-02-18T00:36:47;31.73;;;17.67;;
23317;SDS011;11831;55.918;37.746;2023-02-18T00:39:14;32.53;;;18.42;;
23317;SDS011;11831;55.918;37.746;2023-02-18T00:41:41;31.48;;;17.70;;
23317;SDS011;11831;55.918;37.746;2023-02-18T00:44:08;32.08;;;18.83;;
23317;SDS011;11831;55.918;37.746;2023-02-18T00:46:35;33.67;;;18.40;;
23317;SDS011;11831;55.918;37.746;2023-02-18T00:49:02;35.88;;;18.37;;
23317;SDS011;11831;55.918;37.746;2023-02-18T00:51:30;30.17;;;18.20;;
23317;SDS011;11831;55.918;37.746;2023-02-18T00:53:56;31.20;;;18.00;;
23317;SDS011;11831;55.918;37.746;2023-02-18T00:56:22;35.47;;;18.42;;
23317;SDS011;11831;55.918;37.746;2023-02-18T00:58:49;30.33;;;18.05;;
23317;SDS011;11831;55.918;37.746;2023-02-18T01:01:20;34.42;;;17.55;;
23317;SDS011;11831;55.918;37.746;2023-02-18T01:03:47;34.63;;;17.58;;
23317;SDS011;11831;55.918;37.746;2023-02-18T01:06:14;36.20;;;18.42;;
23317;SDS011;11831;55.918;37.746;2023-02-18T01:08:41;31.23;;;17.45;;
23317;SDS011;11831;55.918;37.746;2023-02-18T01:11:09;31.62;;;17.73;;
23317;SDS011;11831;55.918;37.746;2023-02-18T01:13:36;32.03;;;17.87;;
23317;SDS011;11831;55.918;37.746;2023-02-18T01:16:05;32.78;;;17.75;;
23317;SDS011;11831;55.918;37.746;2023-02-18T01:18:32;33.28;;;17.77;;
23317;SDS011;11831;55.918;37.746;2023-02-18T01:20:58;30.50;;;17.55;;
23317;SDS011;11831;55.918;37.746;2023-02-18T01:23:25;31.33;;;17.40;;
23317;SDS011;11831;55.918;37.746;2023-02-18T01:25:51;31.83;;;17.15;;
23317;SDS011;11831;55.918;37.746;2023-02-18T01:28:18;29.90;;;16.73;;
23317;SDS011;11831;55.918;37.746;2023-02-18T01:30:46;31.23;;;17.42;;
23317;SDS011;11831;55.918;37.746;2023-02-18T01:33:12;29.50;;;16.33;;
23317;SDS011;11831;55.918;37.746;2023-02-18T01:35:39;33.42;;;16.20;;
23317;SDS011;11831;55.918;37.746;2023-02-18T01:38:24;32.97;;;16.45;;
23317;SDS011;11831;55.918;37.746;2023-02-18T01:41:09;30.67;;;17.02;;
23317;SDS011;11831;55.918;37.746;2023-02-18T01:43:36;29.25;;;16.87;;
23317;SDS011;11831;55.918;37.746;2023-02-18T01:49:06;36.38;;;18.37;;
23317;SDS011;11831;55.918;37.746;2023-02-18T01:51:58;29.75;;;16.33;;
23317;SDS011;11831;55.918;37.746;2023-02-18T01:59:32;31.37;;;18.23;;
23317;SDS011;11831;55.918;37.746;2023-02-18T02:02:03;31.55;;;17.17;;
23317;SDS011;11831;55.918;37.746;2023-02-18T02:04:31;30.92;;;17.98;;
23317;SDS011;11831;55.918;37.746;2023-02-18T02:06:58;32.88;;;17.37;;
23317;SDS011;11831;55.918;37.746;2023-02-18T02:09:25;31.67;;;15.75;;
23317;SDS011;11831;55.918;37.746;2023-02-18T02:12:05;29.10;;;15.57;;
23317;SDS011;11831;55.918;37.746;2023-02-18T02:37:33;32.90;;;18.27;;
23317;SDS011;11831;55.918;37.746;2023-02-18T02:53:22;27.83;;;16.98;;
23317;SDS011;11831;55.918;37.746;2023-02-18T02:59:00;29.27;;;17.85;;
23317;SDS011;11831;55.918;37.746;2023-02-18T03:02:00;30.40;;;17.65;;
23317;SDS011;11831;55.918;37.746;2023-02-18T03:24:19;31.90;;;19.05;;
23317;SDS011;11831;55.918;37.746;2023-02-18T03:26:53;38.28;;;21.02;;
23317;SDS011;11831;55.918;37.746;2023-02-18T03:29:23;36.13;;;20.98;;
23317;SDS011;11831;55.918;37.746;2023-02-18T03:31:53;40.33;;;22.15;;
23317;SDS011;11831;55.918;37.746;2023-02-18T03:34:29;36.97;;;21.65;;
23317;SDS011;11831;55.918;37.746;2023-02-18T03:36:59;42.35;;;21.60;;
23317;SDS011;11831;55.918;37.746;2023-02-18T03:39:28;33.75;;;20.45;;
23317;SDS011;11831;55.918;37.746;2023-02-18T03:41:56;35.33;;;20.40;;
23317;SDS011;11831;55.918;37.746;2023-02-18T03:44:23;33.03;;;20.20;;
23317;SDS011;11831;55.918;37.746;2023-02-18T03:46:51;33.65;;;18.90;;
23317;SDS011;11831;55.918;37.746;2023-02-18T03:49:18;37.45;;;20.37;;
23317;SDS011;11831;55.918;37.746;2023-02-18T03:52:02;32.28;;;17.92;;
23317;SDS011;11831;55.918;37.746;2023-02-18T03:57:14;26.02;;;14.82;;
23317;SDS011;11831;55.918;37.746;2023-02-18T04:02:26;35.75;;;17.27;;
23317;SDS011;11831;55.918;37.746;2023-02-18T04:04:52;37.63;;;17.75;;
23317;SDS011;11831;55.918;37.746;2023-02-18T04:07:18;38.03;;;19.73;;
23317;SDS011;11831;55.918;37.746;2023-02-18T04:09:45;34.95;;;18.45;;
23317;SDS011;11831;55.918;37.746;2023-02-18T04:12:11;36.65;;;19.87;;
23317;SDS011;11831;55.918;37.746;2023-02-18T04:14:37;38.22;;;20.60;;
23317;SDS011;11831;55.918;37.746;2023-02-18T04:17:04;40.85;;;19.45;;
23317;SDS011;11831;55.918;37.746;2023-02-18T04:19:49;39.63;;;20.05;;
23317;SDS011;11831;55.918;37.746;2023-02-18T04:22:33;39.15;;;21.45;;
23317;SDS011;11831;55.918;37.746;2023-02-18T04:25:00;39.35;;;19.85;;
23317;SDS011;11831;55.918;37.746;2023-02-18T04:27:44;38.80;;;20.48;;
23317;SDS011;11831;55.918;37.746;2023-02-18T04:30:11;36.13;;;19.77;;
23317;SDS011;11831;55.918;37.746;2023-02-18T04:32:38;37.63;;;20.37;;
23317;SDS011;11831;55.918;37.746;2023-02-18T04:35:05;36.08;;;18.85;;
23317;SDS011;11831;55.918;37.746;2023-02-18T04:37:31;34.50;;;19.65;;
23317;SDS011;11831;55.918;37.746;2023-02-18T04:39:58;32.00;;;15.52;;
23317;SDS011;11831;55.918;37.746;2023-02-18T04:42:25;32.85;;;16.55;;
23317;SDS011;11831;55.918;37.746;2023-02-18T04:44:51;34.13;;;16.37;;
23317;SDS011;11831;55.918;37.746;2023-02-18T04:47:18;30.70;;;16.30;;
23317;SDS011;11831;55.918;37.746;2023-02-18T04:49:44;31.55;;;16.58;;
23317;SDS011;11831;55.918;37.746;2023-02-18T04:52:29;33.20;;;18.35;;
23317;SDS011;11831;55.918;37.746;2023-02-18T04:54:56;34.58;;;18.15;;
23317;SDS011;11831;55.918;37.746;2023-02-18T04:57:22;30.58;;;17.52;;
23317;SDS011;11831;55.918;37.746;2023-02-18T05:00:04;31.02;;;16.60;;
23317;SDS011;11831;55.918;37.746;2023-02-18T05:02:33;31.50;;;18.67;;
23317;SDS011;11831;55.918;37.746;2023-02-18T05:04:59;39.38;;;21.00;;
23317;SDS011;11831;55.918;37.746;2023-02-18T05:07:25;38.47;;;21.77;;
23317;SDS011;11831;55.918;37.746;2023-02-18T05:09:52;39.90;;;21.62;;
23317;SDS011;11831;55.918;37.746;2023-02-18T05:12:19;46.80;;;23.92;;
23317;SDS011;11831;55.918;37.746;2023-02-18T05:14:45;48.30;;;24.87;;
23317;SDS011;11831;55.918;37.746;2023-02-18T05:17:12;47.97;;;24.45;;
23317;SDS011;11831;55.918;37.746;2023-02-18T05:19:38;47.42;;;24.50;;
23317;SDS011;11831;55.918;37.746;2023-02-18T05:25:08;48.90;;;25.00;;
23317;SDS011;11831;55.918;37.746;2023-02-18T05:30:38;42.72;;;22.42;;
23317;SDS011;11831;55.918;37.746;2023-02-18T05:33:04;39.97;;;22.67;;
23317;SDS011;11831;55.918;37.746;2023-02-18T05:35:31;42.40;;;22.08;;
23317;SDS011;11831;55.918;37.746;2023-02-18T05:37:57;35.97;;;20.17;;
23317;SDS011;11831;55.918;37.746;2023-02-18T05:40:23;33.45;;;17.83;;
23317;SDS011;11831;55.918;37.746;2023-02-18T05:42:50;30.05;;;17.27;;
23317;SDS011;11831;55.918;37.746;2023-02-18T05:48:01;27.62;;;14.82;;
23317;SDS011;11831;55.918;37.746;2023-02-18T05:50:28;28.08;;;14.95;;
23317;SDS011;11831;55.918;37.746;2023-02-18T05:55:39;25.62;;;14.93;;
23317;SDS011;11831;55.918;37.746;2023-02-18T05:58:06;24.10;;;14.45;;
23317;SDS011;11831;55.918;37.746;2023-02-18T06:00:33;23.48;;;13.57;;
23317;SDS011;11831;55.918;37.746;2023-02-18T06:02:59;20.67;;;12.18;;
23317;SDS011;11831;55.918;37.746;2023-02-18T06:05:26;22.35;;;12.52;;
23317;SDS011;11831;55.918;37.746;2023-02-18T06:07:53;20.75;;;12.25;;
23317;SDS011;11831;55.918;37.746;2023-02-18T06:10:19;19.17;;;11.30;;
23317;SDS011;11831;55.918;37.746;2023-02-18T06:12:45;19.17;;;11.25;;
23317;SDS011;11831;55.918;37.746;2023-02-18T06:17:57;15.25;;;9.38;;
23317;SDS011;11831;55.918;37.746;2023-02-18T06:20:23;16.20;;;9.38;;
23317;SDS011;11831;55.918;37.746;2023-02-18T06:22:50;14.55;;;8.63;;
23317;SDS011;11831;55.918;37.746;2023-02-18T06:25:16;14.07;;;7.87;;
23317;SDS011;11831;55.918;37.746;2023-02-18T06:27:43;12.77;;;8.85;;
23317;SDS011;11831;55.918;37.746;2023-02-18T06:30:09;12.37;;;7.82;;
23317;SDS011;11831;55.918;37.746;2023-02-18T06:32:36;11.73;;;7.95;;
23317;SDS011;11831;55.918;37.746;2023-02-18T06:35:02;11.48;;;7.37;;
23317;SDS011;11831;55.918;37.746;2023-02-18T06:37:29;13.85;;;8.30;;
23317;SDS011;11831;55.918;37.746;2023-02-18T06:39:55;10.30;;;8.20;;
23317;SDS011;11831;55.918;37.746;2023-02-18T06:42:22;11.90;;;7.62;;
23317;SDS011;11831;55.918;37.746;2023-02-18T06:44:48;11.38;;;7.93;;
23317;SDS011;11831;55.918;37.746;2023-02-18T06:47:14;12.55;;;7.90;;
23317;SDS011;11831;55.918;37.746;2023-02-18T06:49:41;12.13;;;7.80;;
23317;SDS011;11831;55.918;37.746;2023-02-18T06:52:26;11.90;;;7.80;;
23317;SDS011;11831;55.918;37.746;2023-02-18T06:54:54;12.27;;;7.80;;
23317;SDS011;11831;55.918;37.746;2023-02-18T06:57:39;10.68;;;7.22;;
23317;SDS011;11831;55.918;37.746;2023-02-18T07:00:05;9.45;;;6.53;;
23317;SDS011;11831;55.918;37.746;2023-02-18T07:02:32;9.82;;;6.75;;
23317;SDS011;11831;55.918;37.746;2023-02-18T07:04:59;9.88;;;6.85;;
23317;SDS011;11831;55.918;37.746;2023-02-18T07:07:25;9.55;;;6.15;;
23317;SDS011;11831;55.918;37.746;2023-02-18T07:09:51;9.73;;;6.62;;
23317;SDS011;11831;55.918;37.746;2023-02-18T07:12:18;9.90;;;6.82;;
23317;SDS011;11831;55.918;37.746;2023-02-18T07:14:44;9.57;;;6.97;;
23317;SDS011;11831;55.918;37.746;2023-02-18T07:17:10;10.02;;;6.60;;
23317;SDS011;11831;55.918;37.746;2023-02-18T07:19:55;11.65;;;6.72;;
23317;SDS011;11831;55.918;37.746;2023-02-18T07:22:22;10.20;;;7.30;;
23317;SDS011;11831;55.918;37.746;2023-02-18T07:24:52;10.82;;;6.70;;
23317;SDS011;11831;55.918;37.746;2023-02-18T07:30:03;10.38;;;7.22;;
23317;SDS011;11831;55.918;37.746;2023-02-18T07:32:31;10.90;;;6.80;;
23317;SDS011;11831;55.918;37.746;2023-02-18T07:34:57;8.93;;;6.37;;
23317;SDS011;11831;55.918;37.746;2023-02-18T07:37:23;8.50;;;6.10;;
23317;SDS011;11831;55.918;37.746;2023-02-18T07:39:50;7.15;;;5.47;;
23317;SDS011;11831;55.918;37.746;2023-02-18T07:42:16;9.18;;;5.95;;
23317;SDS011;11831;55.918;37.746;2023-02-18T07:44:42;10.20;;;5.90;;
23317;SDS011;11831;55.918;37.746;2023-02-18T07:47:09;10.45;;;7.37;;
23317;SDS011;11831;55.918;37.746;2023-02-18T07:53:03;13.02;;;8.13;;
23317;SDS011;11831;55.918;37.746;2023-02-18T07:55:30;10.60;;;7.40;;
23317;SDS011;11831;55.918;37.746;2023-02-18T08:00:43;11.30;;;7.25;;
23317;SDS011;11831;55.918;37.746;2023-02-18T08:03:10;9.15;;;6.87;;
23317;SDS011;11831;55.918;37.746;2023-02-18T08:05:36;10.18;;;7.10;;
23317;SDS011;11831;55.918;37.746;2023-02-18T08:08:03;7.75;;;6.10;;
23317;SDS011;11831;55.918;37.746;2023-02-18T08:10:30;9.48;;;6.72;;
23317;SDS011;11831;55.918;37.746;2023-02-18T08:12:57;10.30;;;6.82;;
23317;SDS011;11831;55.918;37.746;2023-02-18T08:15:23;11.27;;;7.55;;
23317;SDS011;11831;55.918;37.746;2023-02-18T08:17:49;10.88;;;7.20;;
23317;SDS011;11831;55.918;37.746;2023-02-18T08:20:35;11.02;;;7.05;;
23317;SDS011;11831;55.918;37.746;2023-02-18T08:23:39;9.70;;;6.72;;
23317;SDS011;11831;55.918;37.746;2023-02-18T08:26:05;11.75;;;7.85;;
23317;SDS011;11831;55.918;37.746;2023-02-18T08:28:50;12.10;;;7.00;;
23317;SDS011;11831;55.918;37.746;2023-02-18T08:31:19;12.60;;;7.25;;
23317;SDS011;11831;55.918;37.746;2023-02-18T08:33:50;11.70;;;8.18;;
23317;SDS011;11831;55.918;37.746;2023-02-18T08:36:18;11.73;;;8.38;;
23317;SDS011;11831;55.918;37.746;2023-02-18T08:38:45;11.57;;;7.93;;
23317;SDS011;11831;55.918;37.746;2023-02-18T08:41:12;11.93;;;8.38;;
23317;SDS011;11831;55.918;37.746;2023-02-18T08:43:39;11.90;;;7.97;;
23317;SDS011;11831;55.918;37.746;2023-02-18T08:46:06;11.25;;;8.02;;
23317;SDS011;11831;55.918;37.746;2023-02-18T08:48:32;14.70;;;8.48;;
23317;SDS011;11831;55.918;37.746;2023-02-18T08:50:59;13.50;;;8.52;;
23317;SDS011;11831;55.918;37.746;2023-02-18T08:56:28;11.65;;;8.35;;
23317;SDS011;11831;55.918;37.746;2023-02-18T09:02:30;10.48;;;7.82;;
23317;SDS011;11831;55.918;37.746;2023-02-18T09:04:57;13.23;;;8.10;;
23317;SDS011;11831;55.918;37.746;2023-02-18T09:07:23;11.75;;;7.50;;
23317;SDS011;11831;55.918;37.746;2023-02-18T09:09:50;11.65;;;7.53;;
23317;SDS011;11831;55.918;37.746;2023-02-18T09:12:16;9.70;;;6.85;;
23317;SDS011;11831;55.918;37.746;2023-02-18T09:14:43;11.12;;;7.22;;
23317;SDS011;11831;55.918;37.746;2023-02-18T09:17:12;10.07;;;7.00;;
23317;SDS011;11831;55.918;37.746;2023-02-18T09:19:39;11.70;;;6.72;;
23317;SDS011;11831;55.918;37.746;2023-02-18T09:22:05;9.73;;;6.90;;
23317;SDS011;11831;55.918;37.746;2023-02-18T09:24:35;10.30;;;7.03;;
23317;SDS011;11831;55.918;37.746;2023-02-18T09:27:20;9.73;;;7.30;;
23317;SDS011;11831;55.918;37.746;2023-02-18T09:30:05;11.82;;;7.72;;
23317;SDS011;11831;55.918;37.746;2023-02-18T09:32:32;11.02;;;7.40;;
23317;SDS011;11831;55.918;37.746;2023-02-18T09:34:58;11.90;;;7.37;;
23317;SDS011;11831;55.918;37.746;2023-02-18T09:37:25;9.80;;;7.43;;
23317;SDS011;11831;55.918;37.746;2023-02-18T09:39:52;10.52;;;7.35;;
23317;SDS011;11831;55.918;37.746;2023-02-18T09:42:19;10.43;;;7.65;;
23317;SDS011;11831;55.918;37.746;2023-02-18T09:44:52;11.63;;;7.10;;
23317;SDS011;11831;55.918;37.746;2023-02-18T09:47:28;10.18;;;7.20;;
23317;SDS011;11831;55.918;37.746;2023-02-18T09:49:59;10.27;;;7.28;;
23317;SDS011;11831;55.918;37.746;2023-02-18T09:52:33;9.38;;;7.10;;
23317;SDS011;11831;55.918;37.746;2023-02-18T09:55:28;11.07;;;7.03;;
23317;SDS011;11831;55.918;37.746;2023-02-18T09:58:22;10.68;;;6.78;;
23317;SDS011;11831;55.918;37.746;2023-02-18T10:03:30;8.98;;;6.45;;
23317;SDS011;11831;55.918;37.746;2023-02-18T10:11:00;9.43;;;6.10;;
23317;SDS011;11831;55.918;37.746;2023-02-18T10:13:28;10.82;;;6.72;;
23317;SDS011;11831;55.918;37.746;2023-02-18T10:15:58;8.50;;;5.93;;
23317;SDS011;11831;55.918;37.746;2023-02-18T10:18:30;9.27;;;5.85;;
23317;SDS011;11831;55.918;37.746;2023-02-18T10:21:11;8.27;;;6.28;;
23317;SDS011;11831;55.918;37.746;2023-02-18T10:27:26;6.75;;;5.78;;
23317;SDS011;11831;55.918;37.746;2023-02-18T10:29:59;8.27;;;6.75;;
23317;SDS011;11831;55.918;37.746;2023-02-18T10:32:43;10.95;;;6.82;;
23317;SDS011;11831;55.918;37.746;2023-02-18T10:54:51;9.40;;;7.00;;
23317;SDS011;11831;55.918;37.746;2023-02-18T10:57:21;9.75;;;6.85;;
23317;SDS011;11831;55.918;37.746;2023-02-18T11:03:03;9.70;;;7.25;;
23317;SDS011;11831;55.918;37.746;2023-02-18T11:05:34;11.07;;;7.20;;
23317;SDS011;11831;55.918;37.746;2023-02-18T11:08:02;9.27;;;7.10;;
23317;SDS011;11831;55.918;37.746;2023-02-18T11:10:34;8.68;;;6.32;;
23317;SDS011;11831;55.918;37.746;2023-02-18T11:13:05;9.63;;;7.33;;
23317;SDS011;11831;55.918;37.746;2023-02-18T11:18:28;10.60;;;6.85;;
23317;SDS011;11831;55.918;37.746;2023-02-18T11:23:50;8.75;;;6.75;;
23317;SDS011;11831;55.918;37.746;2023-02-18T11:26:21;8.93;;;6.72;;
23317;SDS011;11831;55.918;37.746;2023-02-18T11:31:46;11.05;;;6.82;;
23317;SDS011;11831;55.918;37.746;2023-02-18T11:34:16;9.15;;;6.47;;
23317;SDS011;11831;55.918;37.746;2023-02-18T11:39:17;8.65;;;5.82;;
23317;SDS011;11831;55.918;37.746;2023-02-18T11:44:20;9.38;;;6.12;;
23317;SDS011;11831;55.918;37.746;2023-02-18T11:49:40;11.35;;;6.45;;
23317;SDS011;11831;55.918;37.746;2023-02-18T11:58:03;7.00;;;5.68;;
23317;SDS011;11831;55.918;37.746;2023-02-18T12:09:21;9.13;;;6.40;;
23317;SDS011;11831;55.918;37.746;2023-02-18T12:12:00;8.45;;;6.75;;
23317;SDS011;11831;55.918;37.746;2023-02-18T12:14:31;8.85;;;7.40;;
23317;SDS011;11831;55.918;37.746;2023-02-18T12:17:18;8.60;;;6.30;;
23317;SDS011;11831;55.918;37.746;2023-02-18T12:19:53;10.73;;;7.03;;
23317;SDS011;11831;55.918;37.746;2023-02-18T12:22:40;10.93;;;7.62;;
23317;SDS011;11831;55.918;37.746;2023-02-18T12:25:27;15.68;;;8.73;;
23317;SDS011;11831;55.918;37.746;2023-02-18T12:33:47;14.82;;;9.18;;
23317;SDS011;11831;55.918;37.746;2023-02-18T12:45:26;9.05;;;6.85;;
23317;SDS011;11831;55.918;37.746;2023-02-18T12:56:16;12.80;;;7.70;;
23317;SDS011;11831;55.918;37.746;2023-02-18T13:10:58;12.10;;;8.52;;
23317;SDS011;11831;55.918;37.746;2023-02-18T13:13:38;9.20;;;7.28;;
23317;SDS011;11831;55.918;37.746;2023-02-18T13:16:13;8.48;;;7.25;;
23317;SDS011;11831;55.918;37.746;2023-02-18T13:18:43;8.07;;;6.93;;
23317;SDS011;11831;55.918;37.746;2023-02-18T13:21:15;7.87;;;6.57;;
23317;SDS011;11831;55.918;37.746;2023-02-18T13:24:00;10.43;;;6.90;;
23317;SDS011;11831;55.918;37.746;2023-02-18T13:26:30;8.57;;;6.60;;
23317;SDS011;11831;55.918;37.746;2023-02-18T13:29:18;9.45;;;6.55;;
23317;SDS011;11831;55.918;37.746;2023-02-18T13:34:52;8.90;;;6.22;;
23317;SDS011;11831;55.918;37.746;2023-02-18T13:40:24;9.70;;;6.03;;
23317;SDS011;11831;55.918;37.746;2023-02-18T13:43:18;7.45;;;6.03;;
23317;SDS011;11831;55.918;37.746;2023-02-18T13:48:51;9.15;;;6.97;;
23317;SDS011;11831;55.918;37.746;2023-02-18T13:54:30;10.63;;;6.78;;
23317;SDS011;11831;55.918;37.746;2023-02-18T13:57:02;8.35;;;6.30;;
23317;SDS011;11831;55.918;37.746;2023-02-18T13:59:40;6.78;;;5.65;;
23317;SDS011;11831;55.918;37.746;2023-02-18T14:12:42;10.13;;;6.55;;
23317;SDS011;11831;55.918;37.746;2023-02-18T14:33:39;8.93;;;5.78;;
23317;SDS011;11831;55.918;37.746;2023-02-18T14:37:00;8.38;;;5.90;;
23317;SDS011;11831;55.918;37.746;2023-02-18T14:48:06;10.07;;;6.20;;
23317;SDS011;11831;55.918;37.746;2023-02-18T14:50:50;10.82;;;6.78;;
23317;SDS011;11831;55.918;37.746;2023-02-18T14:53:22;9.73;;;6.72;;
23317;SDS011;11831;55.918;37.746;2023-02-18T14:55:56;10.32;;;7.05;;
23317;SDS011;11831;55.918;37.746;2023-02-18T15:00:53;10.88;;;7.55;;
23317;SDS011;11831;55.918;37.746;2023-02-18T15:03:20;10.85;;;6.65;;
23317;SDS011;11831;55.918;37.746;2023-02-18T15:05:48;9.57;;;6.00;;
23317;SDS011;11831;55.918;37.746;2023-02-18T15:10:51;11.05;;;6.60;;
23317;SDS011;11831;55.918;37.746;2023-02-18T15:15:54;10.45;;;7.55;;
23317;SDS011;11831;55.918;37.746;2023-02-18T15:18:28;9.65;;;6.35;;
23317;SDS011;11831;55.918;37.746;2023-02-18T15:21:02;10.50;;;7.18;;
23317;SDS011;11831;55.918;37.746;2023-02-18T15:23:30;13.50;;;7.25;;
23317;SDS011;11831;55.918;37.746;2023-02-18T15:26:00;8.73;;;6.80;;
23317;SDS011;11831;55.918;37.746;2023-02-18T15:28:28;10.63;;;7.65;;
23317;SDS011;11831;55.918;37.746;2023-02-18T15:30:57;11.63;;;7.43;;
23317;SDS011;11831;55.918;37.746;2023-02-18T15:33:28;9.05;;;6.80;;
23317;SDS011;11831;55.918;37.746;2023-02-18T15:36:04;11.80;;;7.68;;
23317;SDS011;11831;55.918;37.746;2023-02-18T15:38:31;11.02;;;7.05;;
23317;SDS011;11831;55.918;37.746;2023-02-18T15:40:58;11.07;;;6.18;;
23317;SDS011;11831;55.918;37.746;2023-02-18T15:43:26;9.15;;;6.20;;
23317;SDS011;11831;55.918;37.746;2023-02-18T15:45:53;8.55;;;6.12;;
23317;SDS011;11831;55.918;37.746;2023-02-18T15:48:26;7.85;;;5.75;;
23317;SDS011;11831;55.918;37.746;2023-02-18T15:50:56;10.35;;;6.65;;
23317;SDS011;11831;55.918;37.746;2023-02-18T15:55:53;10.68;;;7.60;;
23317;SDS011;11831;55.918;37.746;2023-02-18T15:58:27;10.02;;;6.43;;
23317;SDS011;11831;55.918;37.746;2023-02-18T16:00:56;8.43;;;6.30;;
23317;SDS011;11831;55.918;37.746;2023-02-18T16:03:25;9.50;;;6.57;;
23317;SDS011;11831;55.918;37.746;2023-02-18T16:08:58;11.23;;;7.20;;
23317;SDS011;11831;55.918;37.746;2023-02-18T16:11:28;10.73;;;7.03;;
23317;SDS011;11831;55.918;37.746;2023-02-18T16:13:59;9.45;;;6.72;;
23317;SDS011;11831;55.918;37.746;2023-02-18T16:16:28;9.20;;;6.75;;
23317;SDS011;11831;55.918;37.746;2023-02-18T16:18:58;10.20;;;7.10;;
23317;SDS011;11831;55.918;37.746;2023-02-18T16:21:36;10.23;;;6.93;;
23317;SDS011;11831;55.918;37.746;2023-02-18T16:24:21;11.02;;;7.80;;
23317;SDS011;11831;55.918;37.746;2023-02-18T16:26:53;11.90;;;7.20;;
23317;SDS011;11831;55.918;37.746;2023-02-18T16:29:24;9.55;;;7.18;;
23317;SDS011;11831;55.918;37.746;2023-02-18T16:32:01;10.30;;;7.22;;
23317;SDS011;11831;55.918;37.746;2023-02-18T16:34:28;10.10;;;7.35;;
23317;SDS011;11831;55.918;37.746;2023-02-18T16:36:54;10.63;;;7.68;;
23317;SDS011;11831;55.918;37.746;2023-02-18T16:39:39;10.27;;;6.82;;
23317;SDS011;11831;55.918;37.746;2023-02-18T16:42:12;13.32;;;8.20;;
23317;SDS011;11831;55.918;37.746;2023-02-18T16:44:39;9.88;;;6.75;;
23317;SDS011;11831;55.918;37.746;2023-02-18T16:47:06;9.65;;;7.12;;
23317;SDS011;11831;55.918;37.746;2023-02-18T16:49:33;11.25;;;7.10;;
23317;SDS011;11831;55.918;37.746;2023-02-18T16:52:00;10.77;;;7.45;;
23317;SDS011;11831;55.918;37.746;2023-02-18T16:54:32;10.68;;;7.00;;
23317;SDS011;11831;55.918;37.746;2023-02-18T16:56:59;9.82;;;7.05;;
23317;SDS011;11831;55.918;37.746;2023-02-18T16:59:25;10.63;;;7.22;;
23317;SDS011;11831;55.918;37.746;2023-02-18T17:01:52;10.80;;;6.93;;
23317;SDS011;11831;55.918;37.746;2023-02-18T17:04:18;10.30;;;6.47;;
23317;SDS011;11831;55.918;37.746;2023-02-18T17:06:45;9.18;;;6.65;;
23317;SDS011;11831;55.918;37.746;2023-02-18T17:09:15;11.07;;;7.10;;
23317;SDS011;11831;55.918;37.746;2023-02-18T17:11:46;10.07;;;6.85;;
23317;SDS011;11831;55.918;37.746;2023-02-18T17:14:18;9.88;;;6.72;;
23317;SDS011;11831;55.918;37.746;2023-02-18T17:16:46;9.23;;;6.25;;
23317;SDS011;11831;55.918;37.746;2023-02-18T17:19:14;10.48;;;6.68;;
23317;SDS011;11831;55.918;37.746;2023-02-18T17:21:41;9.20;;;6.35;;
23317;SDS011;11831;55.918;37.746;2023-02-18T17:24:11;10.55;;;7.25;;
23317;SDS011;11831;55.918;37.746;2023-02-18T17:26:40;11.18;;;6.47;;
23317;SDS011;11831;55.918;37.746;2023-02-18T17:29:07;10.07;;;6.47;;
23317;SDS011;11831;55.918;37.746;2023-02-18T17:31:34;10.20;;;6.72;;
23317;SDS011;11831;55.918;37.746;2023-02-18T17:34:05;9.68;;;6.65;;
23317;SDS011;11831;55.918;37.746;2023-02-18T17:36:34;10.50;;;7.43;;
23317;SDS011;11831;55.918;37.746;2023-02-18T17:39:00;9.70;;;6.53;;
23317;SDS011;11831;55.918;37.746;2023-02-18T17:41:27;9.13;;;5.85;;
23317;SDS011;11831;55.918;37.746;2023-02-18T17:43:53;11.32;;;7.25;;
23317;SDS011;11831;55.918;37.746;2023-02-18T17:46:19;13.25;;;7.22;;
23317;SDS011;11831;55.918;37.746;2023-02-18T17:48:46;10.77;;;7.32;;
23317;SDS011;11831;55.918;37.746;2023-02-18T17:51:18;13.07;;;7.85;;
23317;SDS011;11831;55.918;37.746;2023-02-18T17:56:20;9.68;;;6.57;;
23317;SDS011;11831;55.918;37.746;2023-02-18T17:58:47;9.98;;;6.75;;
23317;SDS011;11831;55.918;37.746;2023-02-18T18:01:13;11.23;;;6.78;;
23317;SDS011;11831;55.918;37.746;2023-02-18T18:03:40;12.52;;;6.60;;
23317;SDS011;11831;55.918;37.746;2023-02-18T18:06:13;10.00;;;6.82;;
23317;SDS011;11831;55.918;37.746;2023-02-18T18:08:43;10.18;;;6.80;;
23317;SDS011;11831;55.918;37.746;2023-02-18T18:11:12;10.77;;;6.68;;
23317;SDS011;11831;55.918;37.746;2023-02-18T18:13:41;9.80;;;6.72;;
23317;SDS011;11831;55.918;37.746;2023-02-18T18:16:09;10.55;;;6.78;;
23317;SDS011;11831;55.918;37.746;2023-02-18T18:18:37;9.30;;;6.95;;
23317;SDS011;11831;55.918;37.746;2023-02-18T18:21:03;9.50;;;6.90;;
23317;SDS011;11831;55.918;37.746;2023-02-18T18:23:30;10.93;;;6.45;;
23317;SDS011;11831;55.918;37.746;2023-02-18T18:26:00;12.32;;;6.85;;
23317;SDS011;11831;55.918;37.746;2023-02-18T18:28:26;8.70;;;6.20;;
23317;SDS011;11831;55.918;37.746;2023-02-18T18:30:54;10.35;;;6.90;;
23317;SDS011;11831;55.918;37.746;2023-02-18T18:33:26;10.43;;;6.28;;
23317;SDS011;11831;55.918;37.746;2023-02-18T18:35:55;10.65;;;7.85;;
23317;SDS011;11831;55.918;37.746;2023-02-18T18:38:23;12.52;;;8.20;;
23317;SDS011;11831;55.918;37.746;2023-02-18T18:40:51;12.13;;;7.97;;
23317;SDS011;11831;55.918;37.746;2023-02-18T18:43:19;13.18;;;7.90;;
23317;SDS011;11831;55.918;37.746;2023-02-18T18:45:48;10.85;;;7.25;;
23317;SDS011;11831;55.918;37.746;2023-02-18T18:48:15;10.40;;;6.97;;
23317;SDS011;11831;55.918;37.746;2023-02-18T18:50:45;9.57;;;6.28;;
23317;SDS011;11831;55.918;37.746;2023-02-18T18:53:22;9.63;;;6.80;;
23317;SDS011;11831;55.918;37.746;2023-02-18T18:55:52;7.78;;;5.82;;
23317;SDS011;11831;55.918;37.746;2023-02-18T18:58:21;8.35;;;5.90;;
23317;SDS011;11831;55.918;37.746;2023-02-18T19:00:50;12.48;;;7.30;;
23317;SDS011;11831;55.918;37.746;2023-02-18T19:03:19;10.20;;;6.62;;
23317;SDS011;11831;55.918;37.746;2023-02-18T19:05:47;9.68;;;6.53;;
23317;SDS011;11831;55.918;37.746;2023-02-18T19:08:14;10.75;;;6.47;;
23317;SDS011;11831;55.918;37.746;2023-02-18T19:10:48;10.70;;;6.80;;